sensor_id;sensor_type;location;lat;lon;timestamp;temperature;humidity
70676;DHT22;59069;52.242;20.900;2023-05-16T00:01:13;12.49;88.68
70676;DHT22;59069;52.242;20.900;2023-05-16T00:03:40;12.48;88.69
70676;DHT22;59069;52.242;20.900;2023-05-16T00:06:07;12.45;88.63
70676;DHT22;59069;52.242;20.900;2023-05-16T00:08:33;12.48;88.61
70676;DHT22;59069;52.242;20.900;2023-05-16T00:10:58;12.48;88.58
70676;DHT22;59069;52.242;20.900;2023-05-16T00:13:24;12.45;88.57
70676;DHT22;59069;52.242;20.900;2023-05-16T00:15:53;12.44;88.56
70676;DHT22;59069;52.242;20.900;2023-05-16T00:18:21;12.46;88.57
70676;DHT22;59069;52.242;20.900;2023-05-16T00:20:49;12.46;88.57
70676;DHT22;59069;52.242;20.900;2023-05-16T00:23:18;12.48;88.50
70676;DHT22;59069;52.242;20.900;2023-05-16T00:25:44;12.48;88.47
70676;DHT22;59069;52.242;20.900;2023-05-16T00:28:11;12.49;88.37
70676;DHT22;59069;52.242;20.900;2023-05-16T00:30:37;12.46;88.33
70676;DHT22;59069;52.242;20.900;2023-05-16T00:33:02;12.44;88.33
70676;DHT22;59069;52.242;20.900;2023-05-16T00:35:27;12.44;88.23
70676;DHT22;59069;52.242;20.900;2023-05-16T00:37:53;12.44;88.28
70676;DHT22;59069;52.242;20.900;2023-05-16T00:40:19;12.41;88.33
70676;DHT22;59069;52.242;20.900;2023-05-16T00:42:44;12.41;88.37
70676;DHT22;59069;52.242;20.900;2023-05-16T00:45:10;12.40;88.31
70676;DHT22;59069;52.242;20.900;2023-05-16T00:47:36;12.40;88.37
70676;DHT22;59069;52.242;20.900;2023-05-16T00:50:02;12.41;88.46
70676;DHT22;59069;52.242;20.900;2023-05-16T00:52:28;12.38;88.58
70676;DHT22;59069;52.242;20.900;2023-05-16T00:54:55;12.41;88.57
70676;DHT22;59069;52.242;20.900;2023-05-16T00:57:21;12.44;88.57
70676;DHT22;59069;52.242;20.900;2023-05-16T00:59:47;12.45;88.58
70676;DHT22;59069;52.242;20.900;2023-05-16T01:02:13;12.46;88.62
70676;DHT22;59069;52.242;20.900;2023-05-16T01:04:38;12.48;88.56
70676;DHT22;59069;52.242;20.900;2023-05-16T01:07:04;12.48;88.48
70676;DHT22;59069;52.242;20.900;2023-05-16T01:09:30;12.51;88.39
70676;DHT22;59069;52.242;20.900;2023-05-16T01:14:56;12.48;88.03
70676;DHT22;59069;52.242;20.900;2023-05-16T01:20:11;12.45;87.88
70676;DHT22;59069;52.242;20.900;2023-05-16T01:22:58;12.45;87.99
70676;DHT22;59069;52.242;20.900;2023-05-16T01:28:18;12.46;88.17
70676;DHT22;59069;52.242;20.900;2023-05-16T01:30:44;12.46;88.21
70676;DHT22;59069;52.242;20.900;2023-05-16T01:33:09;12.49;88.15
70676;DHT22;59069;52.242;20.900;2023-05-16T01:35:57;12.49;88.32
70676;DHT22;59069;52.242;20.900;2023-05-16T01:38:38;12.52;88.21
70676;DHT22;59069;52.242;20.900;2023-05-16T01:41:14;12.54;88.02
70676;DHT22;59069;52.242;20.900;2023-05-16T01:43:43;12.55;87.73
70676;DHT22;59069;52.242;20.900;2023-05-16T01:46:13;12.51;87.59
70676;DHT22;59069;52.242;20.900;2023-05-16T01:51:21;12.49;87.69
70676;DHT22;59069;52.242;20.900;2023-05-16T01:53:49;12.46;87.82
70676;DHT22;59069;52.242;20.900;2023-05-16T01:56:17;12.48;87.85
70676;DHT22;59069;52.242;20.900;2023-05-16T01:58:43;12.51;87.83
70676;DHT22;59069;52.242;20.900;2023-05-16T02:01:12;12.49;87.82
70676;DHT22;59069;52.242;20.900;2023-05-16T02:03:37;12.46;87.77
70676;DHT22;59069;52.242;20.900;2023-05-16T02:06:03;12.54;87.69
70676;DHT22;59069;52.242;20.900;2023-05-16T02:08:29;12.48;87.56
70676;DHT22;59069;52.242;20.900;2023-05-16T02:10:55;12.48;87.42
70676;DHT22;59069;52.242;20.900;2023-05-16T02:13:20;12.49;87.39
70676;DHT22;59069;52.242;20.900;2023-05-16T02:15:46;12.46;87.38
70676;DHT22;59069;52.242;20.900;2023-05-16T02:18:11;12.48;87.35
70676;DHT22;59069;52.242;20.900;2023-05-16T02:20:37;12.48;87.37
70676;DHT22;59069;52.242;20.900;2023-05-16T02:23:04;12.48;87.29
70676;DHT22;59069;52.242;20.900;2023-05-16T02:25:29;12.48;87.36
70676;DHT22;59069;52.242;20.900;2023-05-16T02:27:55;12.48;87.33
70676;DHT22;59069;52.242;20.900;2023-05-16T02:30:20;12.48;87.20
70676;DHT22;59069;52.242;20.900;2023-05-16T02:32:46;12.46;87.21
70676;DHT22;59069;52.242;20.900;2023-05-16T02:35:13;12.46;87.16
70676;DHT22;59069;52.242;20.900;2023-05-16T02:37:39;12.46;87.08
70676;DHT22;59069;52.242;20.900;2023-05-16T02:40:05;12.41;86.88
70676;DHT22;59069;52.242;20.900;2023-05-16T02:42:32;12.40;86.73
70676;DHT22;59069;52.242;20.900;2023-05-16T02:44:57;12.35;86.59
70676;DHT22;59069;52.242;20.900;2023-05-16T02:47:22;12.30;86.53
70676;DHT22;59069;52.242;20.900;2023-05-16T02:49:48;12.27;86.49
70676;DHT22;59069;52.242;20.900;2023-05-16T02:52:13;12.24;86.49
70676;DHT22;59069;52.242;20.900;2023-05-16T02:54:39;12.21;86.51
70676;DHT22;59069;52.242;20.900;2023-05-16T02:57:04;12.17;86.57
70676;DHT22;59069;52.242;20.900;2023-05-16T02:59:30;12.18;86.64
70676;DHT22;59069;52.242;20.900;2023-05-16T03:01:56;12.14;86.80
70676;DHT22;59069;52.242;20.900;2023-05-16T03:04:21;12.13;86.96
70676;DHT22;59069;52.242;20.900;2023-05-16T03:06:47;12.10;86.95
70676;DHT22;59069;52.242;20.900;2023-05-16T03:09:13;12.08;87.03
70676;DHT22;59069;52.242;20.900;2023-05-16T03:11:39;12.11;87.05
70676;DHT22;59069;52.242;20.900;2023-05-16T03:14:04;12.13;87.10
70676;DHT22;59069;52.242;20.900;2023-05-16T03:16:30;12.16;87.22
70676;DHT22;59069;52.242;20.900;2023-05-16T03:18:56;12.16;87.26
70676;DHT22;59069;52.242;20.900;2023-05-16T03:21:21;12.20;87.30
70676;DHT22;59069;52.242;20.900;2023-05-16T03:23:47;12.21;87.12
70676;DHT22;59069;52.242;20.900;2023-05-16T03:26:12;12.21;87.02
70676;DHT22;59069;52.242;20.900;2023-05-16T03:28:38;12.24;86.71
70676;DHT22;59069;52.242;20.900;2023-05-16T03:31:03;12.25;86.72
70676;DHT22;59069;52.242;20.900;2023-05-16T03:33:29;12.25;86.77
70676;DHT22;59069;52.242;20.900;2023-05-16T03:35:54;12.28;86.69
70676;DHT22;59069;52.242;20.900;2023-05-16T03:38:20;12.30;86.70
70676;DHT22;59069;52.242;20.900;2023-05-16T03:40:45;12.32;86.70
70676;DHT22;59069;52.242;20.900;2023-05-16T03:43:11;12.30;86.60
70676;DHT22;59069;52.242;20.900;2023-05-16T03:45:36;12.32;86.43
70676;DHT22;59069;52.242;20.900;2023-05-16T03:48:02;12.35;86.25
70676;DHT22;59069;52.242;20.900;2023-05-16T03:50:27;12.38;86.26
70676;DHT22;59069;52.242;20.900;2023-05-16T03:52:53;12.41;86.07
70676;DHT22;59069;52.242;20.900;2023-05-16T03:55:19;12.41;86.05
70676;DHT22;59069;52.242;20.900;2023-05-16T03:57:45;12.44;86.19
70676;DHT22;59069;52.242;20.900;2023-05-16T04:00:12;12.45;86.16
70676;DHT22;59069;52.242;20.900;2023-05-16T04:02:38;12.48;86.18
70676;DHT22;59069;52.242;20.900;2023-05-16T04:05:09;12.55;86.12
70676;DHT22;59069;52.242;20.900;2023-05-16T04:07:35;12.58;86.10
70676;DHT22;59069;52.242;20.900;2023-05-16T04:10:03;12.58;85.99
70676;DHT22;59069;52.242;20.900;2023-05-16T04:12:29;12.58;85.99
70676;DHT22;59069;52.242;20.900;2023-05-16T04:14:54;12.65;85.99
70676;DHT22;59069;52.242;20.900;2023-05-16T04:17:20;12.66;85.82
70676;DHT22;59069;52.242;20.900;2023-05-16T04:19:45;12.73;85.72
70676;DHT22;59069;52.242;20.900;2023-05-16T04:22:11;12.81;85.69
70676;DHT22;59069;52.242;20.900;2023-05-16T04:24:36;12.83;85.35
70676;DHT22;59069;52.242;20.900;2023-05-16T04:27:02;12.86;85.37
70676;DHT22;59069;52.242;20.900;2023-05-16T04:29:29;12.95;85.20
70676;DHT22;59069;52.242;20.900;2023-05-16T04:31:55;13.00;85.06
70676;DHT22;59069;52.242;20.900;2023-05-16T04:34:20;13.07;85.12
70676;DHT22;59069;52.242;20.900;2023-05-16T04:36:47;13.14;84.91
70676;DHT22;59069;52.242;20.900;2023-05-16T04:39:12;13.19;84.47
70676;DHT22;59069;52.242;20.900;2023-05-16T04:41:38;13.26;84.04
70676;DHT22;59069;52.242;20.900;2023-05-16T04:44:03;13.28;83.61
70676;DHT22;59069;52.242;20.900;2023-05-16T04:46:29;13.34;83.40
70676;DHT22;59069;52.242;20.900;2023-05-16T04:48:55;13.39;83.05
70676;DHT22;59069;52.242;20.900;2023-05-16T04:51:21;13.43;82.60
70676;DHT22;59069;52.242;20.900;2023-05-16T04:53:46;13.48;82.19
70676;DHT22;59069;52.242;20.900;2023-05-16T04:56:12;13.53;81.55
70676;DHT22;59069;52.242;20.900;2023-05-16T04:58:37;13.60;81.07
70676;DHT22;59069;52.242;20.900;2023-05-16T05:01:03;13.61;80.34
70676;DHT22;59069;52.242;20.900;2023-05-16T05:03:29;13.65;80.03
70676;DHT22;59069;52.242;20.900;2023-05-16T05:05:54;13.67;79.70
70676;DHT22;59069;52.242;20.900;2023-05-16T05:08:20;13.74;79.48
70676;DHT22;59069;52.242;20.900;2023-05-16T05:10:46;13.77;79.17
70676;DHT22;59069;52.242;20.900;2023-05-16T05:13:11;13.82;78.72
70676;DHT22;59069;52.242;20.900;2023-05-16T05:15:37;13.86;78.64
70676;DHT22;59069;52.242;20.900;2023-05-16T05:18:03;13.91;78.24
70676;DHT22;59069;52.242;20.900;2023-05-16T05:20:28;13.94;78.05
70676;DHT22;59069;52.242;20.900;2023-05-16T05:22:54;14.00;77.69
70676;DHT22;59069;52.242;20.900;2023-05-16T05:25:19;14.00;77.51
70676;DHT22;59069;52.242;20.900;2023-05-16T05:27:45;14.04;77.33
70676;DHT22;59069;52.242;20.900;2023-05-16T05:30:11;14.12;77.18
70676;DHT22;59069;52.242;20.900;2023-05-16T05:32:36;14.12;77.14
70676;DHT22;59069;52.242;20.900;2023-05-16T05:35:02;14.18;77.12
70676;DHT22;59069;52.242;20.900;2023-05-16T05:37:28;14.22;76.88
70676;DHT22;59069;52.242;20.900;2023-05-16T05:39:54;14.25;76.78
70676;DHT22;59069;52.242;20.900;2023-05-16T05:42:20;14.22;76.54
70676;DHT22;59069;52.242;20.900;2023-05-16T05:44:45;14.21;76.46
70676;DHT22;59069;52.242;20.900;2023-05-16T05:47:11;14.18;76.41
70676;DHT22;59069;52.242;20.900;2023-05-16T05:49:36;14.15;76.44
70676;DHT22;59069;52.242;20.900;2023-05-16T05:52:02;14.09;76.60
70676;DHT22;59069;52.242;20.900;2023-05-16T05:54:28;14.05;76.58
70676;DHT22;59069;52.242;20.900;2023-05-16T05:56:58;14.04;76.93
70676;DHT22;59069;52.242;20.900;2023-05-16T05:59:24;14.02;76.78
70676;DHT22;59069;52.242;20.900;2023-05-16T06:01:50;13.98;76.66
70676;DHT22;59069;52.242;20.900;2023-05-16T06:04:18;13.98;76.33
70676;DHT22;59069;52.242;20.900;2023-05-16T06:06:43;13.94;76.30
70676;DHT22;59069;52.242;20.900;2023-05-16T06:09:08;13.88;75.97
70676;DHT22;59069;52.242;20.900;2023-05-16T06:11:34;13.79;75.93
70676;DHT22;59069;52.242;20.900;2023-05-16T06:14:00;13.70;76.05
70676;DHT22;59069;52.242;20.900;2023-05-16T06:16:25;13.64;76.29
70676;DHT22;59069;52.242;20.900;2023-05-16T06:18:51;13.61;76.53
70676;DHT22;59069;52.242;20.900;2023-05-16T06:21:16;13.60;76.61
70676;DHT22;59069;52.242;20.900;2023-05-16T06:23:42;13.54;76.71
70676;DHT22;59069;52.242;20.900;2023-05-16T06:26:07;13.47;76.86
70676;DHT22;59069;52.242;20.900;2023-05-16T06:28:33;13.46;77.31
70676;DHT22;59069;52.242;20.900;2023-05-16T06:30:58;13.43;77.47
70676;DHT22;59069;52.242;20.900;2023-05-16T06:33:24;13.46;77.78
70676;DHT22;59069;52.242;20.900;2023-05-16T06:35:49;13.47;77.66
70676;DHT22;59069;52.242;20.900;2023-05-16T06:38:17;13.48;77.30
70676;DHT22;59069;52.242;20.900;2023-05-16T06:40:43;13.47;77.25
70676;DHT22;59069;52.242;20.900;2023-05-16T06:43:09;13.50;77.11
70676;DHT22;59069;52.242;20.900;2023-05-16T06:45:34;13.55;77.17
70676;DHT22;59069;52.242;20.900;2023-05-16T06:48:00;13.58;76.72
70676;DHT22;59069;52.242;20.900;2023-05-16T06:50:26;13.61;76.56
70676;DHT22;59069;52.242;20.900;2023-05-16T06:52:51;13.61;76.22
70676;DHT22;59069;52.242;20.900;2023-05-16T06:55:17;13.61;76.08
70676;DHT22;59069;52.242;20.900;2023-05-16T06:57:42;13.58;75.72
70676;DHT22;59069;52.242;20.900;2023-05-16T07:00:08;13.58;75.79
70676;DHT22;59069;52.242;20.900;2023-05-16T07:02:34;13.60;75.65
70676;DHT22;59069;52.242;20.900;2023-05-16T07:04:59;13.57;75.73
70676;DHT22;59069;52.242;20.900;2023-05-16T07:07:25;13.57;75.79
70676;DHT22;59069;52.242;20.900;2023-05-16T07:09:50;13.57;75.98
70676;DHT22;59069;52.242;20.900;2023-05-16T07:12:16;13.60;76.15
70676;DHT22;59069;52.242;20.900;2023-05-16T07:14:42;13.64;76.00
70676;DHT22;59069;52.242;20.900;2023-05-16T07:17:08;13.71;75.96
70676;DHT22;59069;52.242;20.900;2023-05-16T07:19:33;13.78;76.06
70676;DHT22;59069;52.242;20.900;2023-05-16T07:21:59;13.85;75.79
70676;DHT22;59069;52.242;20.900;2023-05-16T07:24:25;13.94;75.17
70676;DHT22;59069;52.242;20.900;2023-05-16T07:26:50;13.97;75.08
70676;DHT22;59069;52.242;20.900;2023-05-16T07:29:16;14.04;74.85
70676;DHT22;59069;52.242;20.900;2023-05-16T07:31:41;14.15;74.91
70676;DHT22;59069;52.242;20.900;2023-05-16T07:34:08;14.29;74.31
70676;DHT22;59069;52.242;20.900;2023-05-16T07:36:33;14.45;73.78
70676;DHT22;59069;52.242;20.900;2023-05-16T07:38:59;14.53;72.97
70676;DHT22;59069;52.242;20.900;2023-05-16T07:41:24;14.67;72.60
70676;DHT22;59069;52.242;20.900;2023-05-16T07:43:50;14.86;72.57
70676;DHT22;59069;52.242;20.900;2023-05-16T07:46:16;14.96;71.82
70676;DHT22;59069;52.242;20.900;2023-05-16T07:48:41;14.97;71.20
70676;DHT22;59069;52.242;20.900;2023-05-16T07:51:07;14.91;70.78
70676;DHT22;59069;52.242;20.900;2023-05-16T07:53:32;14.87;70.58
70676;DHT22;59069;52.242;20.900;2023-05-16T07:55:58;14.81;70.60
70676;DHT22;59069;52.242;20.900;2023-05-16T07:58:23;14.76;70.82
70676;DHT22;59069;52.242;20.900;2023-05-16T08:00:49;14.72;70.94
70676;DHT22;59069;52.242;20.900;2023-05-16T08:03:14;14.66;71.18
70676;DHT22;59069;52.242;20.900;2023-05-16T08:05:40;14.63;71.32
70676;DHT22;59069;52.242;20.900;2023-05-16T08:08:05;14.63;71.51
70676;DHT22;59069;52.242;20.900;2023-05-16T08:10:31;14.62;71.49
70676;DHT22;59069;52.242;20.900;2023-05-16T08:12:56;14.65;71.55
70676;DHT22;59069;52.242;20.900;2023-05-16T08:15:22;14.65;71.53
70676;DHT22;59069;52.242;20.900;2023-05-16T08:17:47;14.66;71.63
70676;DHT22;59069;52.242;20.900;2023-05-16T08:20:13;14.73;72.00
70676;DHT22;59069;52.242;20.900;2023-05-16T08:22:39;14.80;71.86
70676;DHT22;59069;52.242;20.900;2023-05-16T08:25:04;14.90;71.65
70676;DHT22;59069;52.242;20.900;2023-05-16T08:27:30;15.00;71.41
70676;DHT22;59069;52.242;20.900;2023-05-16T08:29:56;15.04;70.93
70676;DHT22;59069;52.242;20.900;2023-05-16T08:32:21;15.10;70.59
70676;DHT22;59069;52.242;20.900;2023-05-16T08:34:47;15.21;71.09
70676;DHT22;59069;52.242;20.900;2023-05-16T08:37:13;15.32;70.88
70676;DHT22;59069;52.242;20.900;2023-05-16T08:39:38;15.41;70.07
70676;DHT22;59069;52.242;20.900;2023-05-16T08:42:04;15.52;69.99
70676;DHT22;59069;52.242;20.900;2023-05-16T08:44:30;15.66;69.92
70676;DHT22;59069;52.242;20.900;2023-05-16T08:46:56;15.83;69.66
70676;DHT22;59069;52.242;20.900;2023-05-16T08:49:22;15.96;69.02
70676;DHT22;59069;52.242;20.900;2023-05-16T08:51:50;16.17;68.79
70676;DHT22;59069;52.242;20.900;2023-05-16T08:54:16;16.21;67.56
70676;DHT22;59069;52.242;20.900;2023-05-16T08:56:43;16.23;67.36
70676;DHT22;59069;52.242;20.900;2023-05-16T08:59:09;16.29;67.13
70676;DHT22;59069;52.242;20.900;2023-05-16T09:01:36;16.27;66.71
70676;DHT22;59069;52.242;20.900;2023-05-16T09:04:05;16.27;66.77
70676;DHT22;59069;52.242;20.900;2023-05-16T09:06:31;16.31;66.93
70676;DHT22;59069;52.242;20.900;2023-05-16T09:08:56;16.27;66.48
70676;DHT22;59069;52.242;20.900;2023-05-16T09:11:22;16.34;66.55
70676;DHT22;59069;52.242;20.900;2023-05-16T09:13:48;16.40;66.70
70676;DHT22;59069;52.242;20.900;2023-05-16T09:16:18;16.46;66.04
70676;DHT22;59069;52.242;20.900;2023-05-16T09:18:46;16.44;65.13
70676;DHT22;59069;52.242;20.900;2023-05-16T09:21:12;16.43;65.14
70676;DHT22;59069;52.242;20.900;2023-05-16T09:23:41;16.60;66.92
70676;DHT22;59069;52.242;20.900;2023-05-16T09:26:07;16.87;65.31
70676;DHT22;59069;52.242;20.900;2023-05-16T09:28:33;17.02;63.54
70676;DHT22;59069;52.242;20.900;2023-05-16T09:31:01;17.09;63.04
70676;DHT22;59069;52.242;20.900;2023-05-16T09:33:27;17.11;62.47
70676;DHT22;59069;52.242;20.900;2023-05-16T09:36:00;17.08;62.63
70676;DHT22;59069;52.242;20.900;2023-05-16T09:38:27;17.05;62.84
70676;DHT22;59069;52.242;20.900;2023-05-16T09:40:53;17.02;62.74
70676;DHT22;59069;52.242;20.900;2023-05-16T09:43:25;16.98;62.99
70676;DHT22;59069;52.242;20.900;2023-05-16T09:45:51;16.99;63.62
70676;DHT22;59069;52.242;20.900;2023-05-16T09:48:17;17.04;63.98
70676;DHT22;59069;52.242;20.900;2023-05-16T09:50:47;17.12;64.07
70676;DHT22;59069;52.242;20.900;2023-05-16T09:53:26;17.12;62.84
70676;DHT22;59069;52.242;20.900;2023-05-16T09:55:59;17.08;62.40
70676;DHT22;59069;52.242;20.900;2023-05-16T09:58:33;17.02;62.71
70676;DHT22;59069;52.242;20.900;2023-05-16T10:00:59;16.99;62.77
70676;DHT22;59069;52.242;20.900;2023-05-16T10:03:26;16.89;62.37
70676;DHT22;59069;52.242;20.900;2023-05-16T10:05:53;16.87;62.42
70676;DHT22;59069;52.242;20.900;2023-05-16T10:08:25;16.77;62.71
70676;DHT22;59069;52.242;20.900;2023-05-16T10:10:53;16.71;63.18
70676;DHT22;59069;52.242;20.900;2023-05-16T10:13:25;16.64;63.31
70676;DHT22;59069;52.242;20.900;2023-05-16T10:15:55;16.58;63.86
70676;DHT22;59069;52.242;20.900;2023-05-16T10:18:23;16.60;64.44
70676;DHT22;59069;52.242;20.900;2023-05-16T10:20:53;16.60;64.32
70676;DHT22;59069;52.242;20.900;2023-05-16T10:23:19;16.56;64.08
70676;DHT22;59069;52.242;20.900;2023-05-16T10:25:47;16.57;64.12
70676;DHT22;59069;52.242;20.900;2023-05-16T10:28:16;16.56;63.99
70676;DHT22;59069;52.242;20.900;2023-05-16T10:30:44;16.57;64.34
70676;DHT22;59069;52.242;20.900;2023-05-16T10:33:14;16.60;64.69
70676;DHT22;59069;52.242;20.900;2023-05-16T10:35:40;16.68;64.63
70676;DHT22;59069;52.242;20.900;2023-05-16T10:38:07;16.75;64.19
70676;DHT22;59069;52.242;20.900;2023-05-16T10:40:35;16.84;63.83
70676;DHT22;59069;52.242;20.900;2023-05-16T10:43:02;16.95;63.68
70676;DHT22;59069;52.242;20.900;2023-05-16T10:45:29;17.07;63.22
70676;DHT22;59069;52.242;20.900;2023-05-16T10:47:58;17.19;62.95
70676;DHT22;59069;52.242;20.900;2023-05-16T10:50:34;17.28;62.47
70676;DHT22;59069;52.242;20.900;2023-05-16T10:53:18;17.29;61.77
70676;DHT22;59069;52.242;20.900;2023-05-16T10:55:48;17.38;61.82
70676;DHT22;59069;52.242;20.900;2023-05-16T11:06:32;17.73;60.07
70676;DHT22;59069;52.242;20.900;2023-05-16T11:14:33;17.54;60.32
70676;DHT22;59069;52.242;20.900;2023-05-16T11:17:19;17.50;60.61
70676;DHT22;59069;52.242;20.900;2023-05-16T11:19:55;17.43;60.62
70676;DHT22;59069;52.242;20.900;2023-05-16T11:22:25;17.38;60.60
70676;DHT22;59069;52.242;20.900;2023-05-16T11:25:00;17.43;60.78
70676;DHT22;59069;52.242;20.900;2023-05-16T11:29:56;17.96;63.57
70676;DHT22;59069;52.242;20.900;2023-05-16T11:32:22;18.53;62.39
70676;DHT22;59069;52.242;20.900;2023-05-16T11:34:49;19.10;58.53
70676;DHT22;59069;52.242;20.900;2023-05-16T11:37:16;19.26;55.85
70676;DHT22;59069;52.242;20.900;2023-05-16T11:39:43;19.24;55.17
70676;DHT22;59069;52.242;20.900;2023-05-16T11:42:09;19.22;55.61
70676;DHT22;59069;52.242;20.900;2023-05-16T11:44:35;19.13;55.51
70676;DHT22;59069;52.242;20.900;2023-05-16T11:47:00;19.40;58.13
70676;DHT22;59069;52.242;20.900;2023-05-16T11:49:27;19.71;57.61
70676;DHT22;59069;52.242;20.900;2023-05-16T11:51:53;20.12;55.88
70676;DHT22;59069;52.242;20.900;2023-05-16T11:54:19;20.21;52.13
70676;DHT22;59069;52.242;20.900;2023-05-16T11:56:45;20.09;51.89
70676;DHT22;59069;52.242;20.900;2023-05-16T11:59:10;19.98;52.51
70676;DHT22;59069;52.242;20.900;2023-05-16T12:01:38;20.08;56.34
70676;DHT22;59069;52.242;20.900;2023-05-16T12:04:13;20.13;53.17
70676;DHT22;59069;52.242;20.900;2023-05-16T12:06:40;20.37;53.35
70676;DHT22;59069;52.242;20.900;2023-05-16T12:09:13;20.93;56.28
70676;DHT22;59069;52.242;20.900;2023-05-16T12:11:40;22.07;57.07
70676;DHT22;59069;52.242;20.900;2023-05-16T12:14:07;22.32;46.53
70676;DHT22;59069;52.242;20.900;2023-05-16T12:16:34;22.18;45.22
70676;DHT22;59069;52.242;20.900;2023-05-16T12:19:07;21.83;46.02
70676;DHT22;59069;52.242;20.900;2023-05-16T12:21:33;21.25;46.61
70676;DHT22;59069;52.242;20.900;2023-05-16T12:23:59;20.72;48.26
70676;DHT22;59069;52.242;20.900;2023-05-16T12:26:27;20.26;49.96
70676;DHT22;59069;52.242;20.900;2023-05-16T12:29:01;19.91;51.22
70676;DHT22;59069;52.242;20.900;2023-05-16T12:31:31;19.63;52.02
70676;DHT22;59069;52.242;20.900;2023-05-16T12:34:00;19.46;52.91
70676;DHT22;59069;52.242;20.900;2023-05-16T12:36:29;19.31;53.51
70676;DHT22;59069;52.242;20.900;2023-05-16T12:39:02;19.17;54.25
70676;DHT22;59069;52.242;20.900;2023-05-16T12:41:29;19.12;54.18
70676;DHT22;59069;52.242;20.900;2023-05-16T12:44:11;19.20;54.60
70676;DHT22;59069;52.242;20.900;2023-05-16T12:46:44;19.34;54.62
70676;DHT22;59069;52.242;20.900;2023-05-16T12:49:11;19.47;54.53
70676;DHT22;59069;52.242;20.900;2023-05-16T12:51:37;19.74;56.00
70676;DHT22;59069;52.242;20.900;2023-05-16T12:54:08;20.02;54.34
70676;DHT22;59069;52.242;20.900;2023-05-16T12:56:38;20.21;53.45
70676;DHT22;59069;52.242;20.900;2023-05-16T12:59:04;20.21;52.22
70676;DHT22;59069;52.242;20.900;2023-05-16T13:01:30;20.06;52.50
70676;DHT22;59069;52.242;20.900;2023-05-16T13:03:55;19.91;52.95
70676;DHT22;59069;52.242;20.900;2023-05-16T13:06:21;19.79;53.26
70676;DHT22;59069;52.242;20.900;2023-05-16T13:08:46;19.77;53.44
70676;DHT22;59069;52.242;20.900;2023-05-16T13:11:12;19.94;54.78
70676;DHT22;59069;52.242;20.900;2023-05-16T13:13:37;20.40;54.84
70676;DHT22;59069;52.242;20.900;2023-05-16T13:16:03;21.01;54.55
70676;DHT22;59069;52.242;20.900;2023-05-16T13:18:28;21.42;50.39
70676;DHT22;59069;52.242;20.900;2023-05-16T13:20:54;21.85;50.95
70676;DHT22;59069;52.242;20.900;2023-05-16T13:23:20;22.32;49.40
70676;DHT22;59069;52.242;20.900;2023-05-16T13:25:45;22.68;47.62
70676;DHT22;59069;52.242;20.900;2023-05-16T13:28:11;22.79;45.62
70676;DHT22;59069;52.242;20.900;2023-05-16T13:30:37;22.74;44.84
70676;DHT22;59069;52.242;20.900;2023-05-16T13:33:02;22.69;44.91
70676;DHT22;59069;52.242;20.900;2023-05-16T13:35:28;22.63;45.66
70676;DHT22;59069;52.242;20.900;2023-05-16T13:37:53;22.57;46.23
70676;DHT22;59069;52.242;20.900;2023-05-16T13:40:19;22.60;46.66
70676;DHT22;59069;52.242;20.900;2023-05-16T13:42:45;22.67;45.97
70676;DHT22;59069;52.242;20.900;2023-05-16T13:45:10;22.77;45.38
70676;DHT22;59069;52.242;20.900;2023-05-16T13:47:36;22.69;44.75
70676;DHT22;59069;52.242;20.900;2023-05-16T13:50:03;22.65;45.65
70676;DHT22;59069;52.242;20.900;2023-05-16T13:52:33;22.63;44.40
70676;DHT22;59069;52.242;20.900;2023-05-16T13:54:59;22.53;44.11
70676;DHT22;59069;52.242;20.900;2023-05-16T13:57:24;22.48;43.56
70676;DHT22;59069;52.242;20.900;2023-05-16T13:59:52;22.43;43.57
70676;DHT22;59069;52.242;20.900;2023-05-16T14:02:18;22.43;43.74
70676;DHT22;59069;52.242;20.900;2023-05-16T14:04:43;22.37;43.63
70676;DHT22;59069;52.242;20.900;2023-05-16T14:07:08;22.24;43.25
70676;DHT22;59069;52.242;20.900;2023-05-16T14:09:34;21.97;43.31
70676;DHT22;59069;52.242;20.900;2023-05-16T14:12:06;21.72;43.96
70676;DHT22;59069;52.242;20.900;2023-05-16T14:14:33;21.54;44.93
70676;DHT22;59069;52.242;20.900;2023-05-16T14:16:58;21.48;45.47
70676;DHT22;59069;52.242;20.900;2023-05-16T14:19:24;21.48;45.95
70676;DHT22;59069;52.242;20.900;2023-05-16T14:21:49;21.49;46.33
70676;DHT22;59069;52.242;20.900;2023-05-16T14:24:15;21.56;46.06
70676;DHT22;59069;52.242;20.900;2023-05-16T14:26:41;21.54;45.30
70676;DHT22;59069;52.242;20.900;2023-05-16T14:29:06;21.46;45.13
70676;DHT22;59069;52.242;20.900;2023-05-16T14:31:32;21.31;44.88
70676;DHT22;59069;52.242;20.900;2023-05-16T14:33:57;21.20;44.97
70676;DHT22;59069;52.242;20.900;2023-05-16T14:36:24;21.04;45.50
70676;DHT22;59069;52.242;20.900;2023-05-16T14:38:49;21.01;46.08
70676;DHT22;59069;52.242;20.900;2023-05-16T14:41:15;21.05;46.31
70676;DHT22;59069;52.242;20.900;2023-05-16T14:43:40;21.11;46.08
70676;DHT22;59069;52.242;20.900;2023-05-16T14:46:06;21.05;45.92
70676;DHT22;59069;52.242;20.900;2023-05-16T14:48:31;20.98;46.67
70676;DHT22;59069;52.242;20.900;2023-05-16T14:50:58;21.01;47.22
70676;DHT22;59069;52.242;20.900;2023-05-16T14:53:23;21.08;47.04
70676;DHT22;59069;52.242;20.900;2023-05-16T14:55:49;21.10;46.80
70676;DHT22;59069;52.242;20.900;2023-05-16T14:58:14;21.05;46.91
70676;DHT22;59069;52.242;20.900;2023-05-16T15:00:40;21.01;46.88
70676;DHT22;59069;52.242;20.900;2023-05-16T15:03:06;20.98;47.31
70676;DHT22;59069;52.242;20.900;2023-05-16T15:05:31;20.90;47.10
70676;DHT22;59069;52.242;20.900;2023-05-16T15:07:56;20.77;46.91
70676;DHT22;59069;52.242;20.900;2023-05-16T15:10:22;20.69;47.08
70676;DHT22;59069;52.242;20.900;2023-05-16T15:12:48;20.56;47.14
70676;DHT22;59069;52.242;20.900;2023-05-16T15:15:13;20.50;47.52
70676;DHT22;59069;52.242;20.900;2023-05-16T15:17:40;20.49;48.01
70676;DHT22;59069;52.242;20.900;2023-05-16T15:20:07;20.46;48.37
70676;DHT22;59069;52.242;20.900;2023-05-16T15:22:34;20.45;48.59
70676;DHT22;59069;52.242;20.900;2023-05-16T15:25:00;20.39;48.38
70676;DHT22;59069;52.242;20.900;2023-05-16T15:27:26;20.35;48.62
70676;DHT22;59069;52.242;20.900;2023-05-16T15:29:52;20.36;49.02
70676;DHT22;59069;52.242;20.900;2023-05-16T15:32:18;20.37;49.18
70676;DHT22;59069;52.242;20.900;2023-05-16T15:34:43;20.45;49.42
70676;DHT22;59069;52.242;20.900;2023-05-16T15:37:09;20.46;49.28
70676;DHT22;59069;52.242;20.900;2023-05-16T15:39:34;20.49;49.34